sensor_id;sensor_type;location;lat;lon;timestamp;temperature;humidity
52965;DHT22;42923;53.220;6.528;2022-08-06T00:02:00;10.60;99.90
52965;DHT22;42923;53.220;6.528;2022-08-06T00:04:26;10.60;99.90
52965;DHT22;42923;53.220;6.528;2022-08-06T00:06:51;10.70;99.90
52965;DHT22;42923;53.220;6.528;2022-08-06T00:09:17;10.70;99.90
52965;DHT22;42923;53.220;6.528;2022-08-06T00:11:43;10.70;99.90
52965;DHT22;42923;53.220;6.528;2022-08-06T00:14:09;10.70;99.90
52965;DHT22;42923;53.220;6.528;2022-08-06T00:16:35;10.60;99.90
52965;DHT22;42923;53.220;6.528;2022-08-06T00:19:01;10.60;99.90
52965;DHT22;42923;53.220;6.528;2022-08-06T00:21:26;10.50;99.90
52965;DHT22;42923;53.220;6.528;2022-08-06T00:23:52;10.40;99.90
52965;DHT22;42923;53.220;6.528;2022-08-06T00:26:18;10.50;99.90
52965;DHT22;42923;53.220;6.528;2022-08-06T00:28:43;10.30;99.90
52965;DHT22;42923;53.220;6.528;2022-08-06T00:31:09;10.30;99.90
52965;DHT22;42923;53.220;6.528;2022-08-06T00:33:35;10.30;99.90
52965;DHT22;42923;53.220;6.528;2022-08-06T00:36:01;10.30;99.90
52965;DHT22;42923;53.220;6.528;2022-08-06T00:38:27;10.30;99.90
52965;DHT22;42923;53.220;6.528;2022-08-06T00:40:53;10.30;99.90
52965;DHT22;42923;53.220;6.528;2022-08-06T00:43:19;10.30;99.90
52965;DHT22;42923;53.220;6.528;2022-08-06T00:45:44;10.30;99.90
52965;DHT22;42923;53.220;6.528;2022-08-06T00:48:10;10.20;99.90
52965;DHT22;42923;53.220;6.528;2022-08-06T00:50:36;10.20;99.90
52965;DHT22;42923;53.220;6.528;2022-08-06T00:53:03;10.30;99.90
52965;DHT22;42923;53.220;6.528;2022-08-06T00:55:30;10.30;99.90
52965;DHT22;42923;53.220;6.528;2022-08-06T00:57:56;10.30;99.90
52965;DHT22;42923;53.220;6.528;2022-08-06T01:00:21;10.30;99.90
52965;DHT22;42923;53.220;6.528;2022-08-06T01:02:47;10.30;99.90
52965;DHT22;42923;53.220;6.528;2022-08-06T01:05:13;10.30;99.90
52965;DHT22;42923;53.220;6.528;2022-08-06T01:07:38;10.20;99.90
52965;DHT22;42923;53.220;6.528;2022-08-06T01:10:05;10.20;99.90
52965;DHT22;42923;53.220;6.528;2022-08-06T01:12:30;10.20;99.90
52965;DHT22;42923;53.220;6.528;2022-08-06T01:14:56;10.10;99.90
52965;DHT22;42923;53.220;6.528;2022-08-06T01:17:36;10.10;99.90
52965;DHT22;42923;53.220;6.528;2022-08-06T01:23:28;10.00;99.90
52965;DHT22;42923;53.220;6.528;2022-08-06T01:29:03;9.90;99.90
52965;DHT22;42923;53.220;6.528;2022-08-06T01:31:52;9.90;99.90
52965;DHT22;42923;53.220;6.528;2022-08-06T01:34:25;10.10;99.90
52965;DHT22;42923;53.220;6.528;2022-08-06T01:37:00;9.90;99.90
52965;DHT22;42923;53.220;6.528;2022-08-06T01:39:28;9.80;99.90
52965;DHT22;42923;53.220;6.528;2022-08-06T01:41:56;9.80;99.90
52965;DHT22;42923;53.220;6.528;2022-08-06T01:44:25;9.80;99.90
52965;DHT22;42923;53.220;6.528;2022-08-06T01:46:57;9.80;99.90
52965;DHT22;42923;53.220;6.528;2022-08-06T01:49:26;9.80;99.90
52965;DHT22;42923;53.220;6.528;2022-08-06T01:51:55;9.80;99.90
52965;DHT22;42923;53.220;6.528;2022-08-06T01:54:23;9.80;99.90
52965;DHT22;42923;53.220;6.528;2022-08-06T01:56:52;9.70;99.90
52965;DHT22;42923;53.220;6.528;2022-08-06T01:59:21;9.70;99.90
52965;DHT22;42923;53.220;6.528;2022-08-06T02:01:52;9.70;99.90
52965;DHT22;42923;53.220;6.528;2022-08-06T02:04:22;9.70;99.90
52965;DHT22;42923;53.220;6.528;2022-08-06T02:06:49;10.10;99.90
52965;DHT22;42923;53.220;6.528;2022-08-06T02:09:18;9.60;99.90
52965;DHT22;42923;53.220;6.528;2022-08-06T02:11:51;9.60;99.90
52965;DHT22;42923;53.220;6.528;2022-08-06T02:14:20;9.60;99.90
52965;DHT22;42923;53.220;6.528;2022-08-06T02:16:48;9.60;99.90
52965;DHT22;42923;53.220;6.528;2022-08-06T02:19:16;9.60;99.90
52965;DHT22;42923;53.220;6.528;2022-08-06T02:21:45;9.60;99.90
52965;DHT22;42923;53.220;6.528;2022-08-06T02:24:12;9.60;99.90
52965;DHT22;42923;53.220;6.528;2022-08-06T02:26:40;9.60;99.90
52965;DHT22;42923;53.220;6.528;2022-08-06T02:29:14;9.50;99.90
52965;DHT22;42923;53.220;6.528;2022-08-06T02:31:41;9.50;99.90
52965;DHT22;42923;53.220;6.528;2022-08-06T02:34:07;9.50;99.90
52965;DHT22;42923;53.220;6.528;2022-08-06T02:36:38;9.50;99.90
52965;DHT22;42923;53.220;6.528;2022-08-06T02:39:15;9.50;99.90
52965;DHT22;42923;53.220;6.528;2022-08-06T02:41:55;9.60;99.90
52965;DHT22;42923;53.220;6.528;2022-08-06T02:44:39;9.50;99.90
52965;DHT22;42923;53.220;6.528;2022-08-06T02:47:11;9.50;99.90
52965;DHT22;42923;53.220;6.528;2022-08-06T02:49:41;9.40;99.90
52965;DHT22;42923;53.220;6.528;2022-08-06T02:52:21;9.70;99.90
52965;DHT22;42923;53.220;6.528;2022-08-06T02:57:37;9.30;99.90
52965;DHT22;42923;53.220;6.528;2022-08-06T03:00:06;9.30;99.90
52965;DHT22;42923;53.220;6.528;2022-08-06T03:02:36;9.30;99.90
52965;DHT22;42923;53.220;6.528;2022-08-06T03:05:05;9.30;99.90
52965;DHT22;42923;53.220;6.528;2022-08-06T03:07:32;9.30;99.90
52965;DHT22;42923;53.220;6.528;2022-08-06T03:10:00;9.30;99.90
52965;DHT22;42923;53.220;6.528;2022-08-06T03:12:27;9.30;99.90
52965;DHT22;42923;53.220;6.528;2022-08-06T03:14:53;9.30;99.90
52965;DHT22;42923;53.220;6.528;2022-08-06T03:17:21;9.30;99.90
52965;DHT22;42923;53.220;6.528;2022-08-06T03:19:49;9.30;99.90
52965;DHT22;42923;53.220;6.528;2022-08-06T03:22:17;9.30;99.90
52965;DHT22;42923;53.220;6.528;2022-08-06T03:24:45;9.30;99.90
52965;DHT22;42923;53.220;6.528;2022-08-06T03:27:12;9.30;99.90
52965;DHT22;42923;53.220;6.528;2022-08-06T03:29:42;9.30;99.90
52965;DHT22;42923;53.220;6.528;2022-08-06T03:32:08;9.30;99.90
52965;DHT22;42923;53.220;6.528;2022-08-06T03:34:35;9.20;99.90
52965;DHT22;42923;53.220;6.528;2022-08-06T03:37:03;9.30;99.90
52965;DHT22;42923;53.220;6.528;2022-08-06T03:39:31;9.30;99.90
52965;DHT22;42923;53.220;6.528;2022-08-06T03:41:57;9.30;99.90
52965;DHT22;42923;53.220;6.528;2022-08-06T03:44:23;9.60;99.90
52965;DHT22;42923;53.220;6.528;2022-08-06T03:47:04;9.30;99.90
52965;DHT22;42923;53.220;6.528;2022-08-06T03:49:35;9.20;99.90
52965;DHT22;42923;53.220;6.528;2022-08-06T03:52:03;9.30;99.90
52965;DHT22;42923;53.220;6.528;2022-08-06T03:54:33;9.20;99.90
52965;DHT22;42923;53.220;6.528;2022-08-06T03:57:03;9.20;99.90
52965;DHT22;42923;53.220;6.528;2022-08-06T03:59:31;9.20;99.90
52965;DHT22;42923;53.220;6.528;2022-08-06T04:02:00;9.20;99.90
52965;DHT22;42923;53.220;6.528;2022-08-06T04:04:26;9.20;99.90
52965;DHT22;42923;53.220;6.528;2022-08-06T04:06:54;9.50;99.90
52965;DHT22;42923;53.220;6.528;2022-08-06T04:09:21;9.20;99.90
52965;DHT22;42923;53.220;6.528;2022-08-06T04:11:47;9.20;99.90
52965;DHT22;42923;53.220;6.528;2022-08-06T04:14:13;9.30;99.90
52965;DHT22;42923;53.220;6.528;2022-08-06T04:16:40;9.30;99.90
52965;DHT22;42923;53.220;6.528;2022-08-06T04:19:07;9.40;99.90
52965;DHT22;42923;53.220;6.528;2022-08-06T04:21:35;9.40;99.90
52965;DHT22;42923;53.220;6.528;2022-08-06T04:24:00;9.60;99.90
52965;DHT22;42923;53.220;6.528;2022-08-06T04:26:26;10.00;99.90
52965;DHT22;42923;53.220;6.528;2022-08-06T04:28:55;9.80;99.90
52965;DHT22;42923;53.220;6.528;2022-08-06T04:31:22;9.90;99.90
52965;DHT22;42923;53.220;6.528;2022-08-06T04:33:51;10.10;99.90
52965;DHT22;42923;53.220;6.528;2022-08-06T04:36:17;10.20;99.90
52965;DHT22;42923;53.220;6.528;2022-08-06T04:38:45;10.30;99.90
52965;DHT22;42923;53.220;6.528;2022-08-06T04:41:12;10.50;99.90
52965;DHT22;42923;53.220;6.528;2022-08-06T04:43:37;10.60;99.90
52965;DHT22;42923;53.220;6.528;2022-08-06T04:46:04;10.70;99.90
52965;DHT22;42923;53.220;6.528;2022-08-06T04:48:30;10.80;99.90
52965;DHT22;42923;53.220;6.528;2022-08-06T04:50:56;10.90;99.90
52965;DHT22;42923;53.220;6.528;2022-08-06T04:53:22;10.90;99.90
52965;DHT22;42923;53.220;6.528;2022-08-06T04:55:48;11.00;99.90
52965;DHT22;42923;53.220;6.528;2022-08-06T04:58:15;11.10;99.90
52965;DHT22;42923;53.220;6.528;2022-08-06T05:00:46;11.10;99.90
52965;DHT22;42923;53.220;6.528;2022-08-06T05:03:12;11.00;99.90
52965;DHT22;42923;53.220;6.528;2022-08-06T05:05:53;11.10;99.90
52965;DHT22;42923;53.220;6.528;2022-08-06T05:08:20;11.10;99.90
52965;DHT22;42923;53.220;6.528;2022-08-06T05:11:05;11.30;99.90
52965;DHT22;42923;53.220;6.528;2022-08-06T05:13:35;11.00;99.90
52965;DHT22;42923;53.220;6.528;2022-08-06T05:16:04;10.90;99.90
52965;DHT22;42923;53.220;6.528;2022-08-06T05:18:44;10.90;99.90
52965;DHT22;42923;53.220;6.528;2022-08-06T05:21:12;10.80;99.90
52965;DHT22;42923;53.220;6.528;2022-08-06T05:23:52;10.80;99.90
52965;DHT22;42923;53.220;6.528;2022-08-06T05:26:19;10.90;99.90
52965;DHT22;42923;53.220;6.528;2022-08-06T05:28:45;10.90;99.90
52965;DHT22;42923;53.220;6.528;2022-08-06T05:31:11;11.10;99.90
52965;DHT22;42923;53.220;6.528;2022-08-06T05:33:38;11.10;99.90
52965;DHT22;42923;53.220;6.528;2022-08-06T05:36:07;11.50;99.90
52965;DHT22;42923;53.220;6.528;2022-08-06T05:38:36;11.40;99.90
52965;DHT22;42923;53.220;6.528;2022-08-06T05:41:04;11.40;99.90
52965;DHT22;42923;53.220;6.528;2022-08-06T05:43:30;11.50;99.90
52965;DHT22;42923;53.220;6.528;2022-08-06T05:46:01;11.70;99.90
52965;DHT22;42923;53.220;6.528;2022-08-06T05:48:30;11.70;99.90
52965;DHT22;42923;53.220;6.528;2022-08-06T05:51:01;11.80;99.90
52965;DHT22;42923;53.220;6.528;2022-08-06T05:53:32;11.80;99.90
52965;DHT22;42923;53.220;6.528;2022-08-06T05:56:09;11.90;99.90
52965;DHT22;42923;53.220;6.528;2022-08-06T05:58:39;11.90;99.90
52965;DHT22;42923;53.220;6.528;2022-08-06T06:01:07;11.90;99.90
52965;DHT22;42923;53.220;6.528;2022-08-06T06:03:36;11.90;99.90
52965;DHT22;42923;53.220;6.528;2022-08-06T06:06:05;11.80;99.90
52965;DHT22;42923;53.220;6.528;2022-08-06T06:08:31;11.80;99.90
52965;DHT22;42923;53.220;6.528;2022-08-06T06:10:57;12.20;99.90
52965;DHT22;42923;53.220;6.528;2022-08-06T06:13:24;12.00;99.90
52965;DHT22;42923;53.220;6.528;2022-08-06T06:15:56;11.80;99.90
52965;DHT22;42923;53.220;6.528;2022-08-06T06:21:00;12.70;99.90
52965;DHT22;42923;53.220;6.528;2022-08-06T06:23:49;12.40;99.90
52965;DHT22;42923;53.220;6.528;2022-08-06T06:26:48;12.80;99.90
52965;DHT22;42923;53.220;6.528;2022-08-06T06:35:41;13.90;99.90
52965;DHT22;42923;53.220;6.528;2022-08-06T06:43:56;14.80;99.90
52965;DHT22;42923;53.220;6.528;2022-08-06T06:48:55;14.90;99.90
52965;DHT22;42923;53.220;6.528;2022-08-06T06:51:56;15.00;99.90
52965;DHT22;42923;53.220;6.528;2022-08-06T06:54:36;15.00;99.90
52965;DHT22;42923;53.220;6.528;2022-08-06T06:57:05;15.00;99.90
52965;DHT22;42923;53.220;6.528;2022-08-06T06:59:42;15.30;99.90
52965;DHT22;42923;53.220;6.528;2022-08-06T07:02:16;15.50;99.90
52965;DHT22;42923;53.220;6.528;2022-08-06T07:04:43;15.70;99.90
52965;DHT22;42923;53.220;6.528;2022-08-06T07:07:11;16.10;99.90
52965;DHT22;42923;53.220;6.528;2022-08-06T07:09:38;16.50;99.90
52965;DHT22;42923;53.220;6.528;2022-08-06T07:12:05;16.80;99.90
52965;DHT22;42923;53.220;6.528;2022-08-06T07:14:34;17.20;99.90
52965;DHT22;42923;53.220;6.528;2022-08-06T07:17:01;17.50;99.90
52965;DHT22;42923;53.220;6.528;2022-08-06T07:19:27;18.00;99.90
52965;DHT22;42923;53.220;6.528;2022-08-06T07:21:54;18.40;99.90
52965;DHT22;42923;53.220;6.528;2022-08-06T07:24:22;18.80;99.90
52965;DHT22;42923;53.220;6.528;2022-08-06T07:26:50;19.10;99.90
52965;DHT22;42923;53.220;6.528;2022-08-06T07:29:18;19.00;99.90
52965;DHT22;42923;53.220;6.528;2022-08-06T07:31:46;18.90;99.90
52965;DHT22;42923;53.220;6.528;2022-08-06T07:34:14;18.80;99.90
52965;DHT22;42923;53.220;6.528;2022-08-06T07:36:48;18.60;99.90
52965;DHT22;42923;53.220;6.528;2022-08-06T07:39:23;18.50;99.90
52965;DHT22;42923;53.220;6.528;2022-08-06T07:41:51;18.60;99.90
52965;DHT22;42923;53.220;6.528;2022-08-06T07:44:20;18.70;99.90
52965;DHT22;42923;53.220;6.528;2022-08-06T07:46:47;18.70;99.90
52965;DHT22;42923;53.220;6.528;2022-08-06T07:49:19;18.80;99.90
52965;DHT22;42923;53.220;6.528;2022-08-06T07:51:46;18.90;99.90
52965;DHT22;42923;53.220;6.528;2022-08-06T07:54:14;19.00;99.90
52965;DHT22;42923;53.220;6.528;2022-08-06T07:56:42;19.10;99.90
52965;DHT22;42923;53.220;6.528;2022-08-06T07:59:09;19.20;99.90
52965;DHT22;42923;53.220;6.528;2022-08-06T08:01:37;19.40;99.90
52965;DHT22;42923;53.220;6.528;2022-08-06T08:04:07;19.40;99.90
52965;DHT22;42923;53.220;6.528;2022-08-06T08:06:55;19.40;99.90
52965;DHT22;42923;53.220;6.528;2022-08-06T08:09:24;19.40;99.90
52965;DHT22;42923;53.220;6.528;2022-08-06T08:11:51;19.40;99.90
52965;DHT22;42923;53.220;6.528;2022-08-06T08:14:20;19.40;99.90
52965;DHT22;42923;53.220;6.528;2022-08-06T08:16:46;19.50;99.90
52965;DHT22;42923;53.220;6.528;2022-08-06T08:21:48;19.60;99.90
52965;DHT22;42923;53.220;6.528;2022-08-06T08:24:13;19.60;99.90
52965;DHT22;42923;53.220;6.528;2022-08-06T08:26:39;19.60;99.90
52965;DHT22;42923;53.220;6.528;2022-08-06T08:29:05;19.70;99.90
52965;DHT22;42923;53.220;6.528;2022-08-06T08:31:31;19.80;99.90
52965;DHT22;42923;53.220;6.528;2022-08-06T08:33:56;19.90;99.90
52965;DHT22;42923;53.220;6.528;2022-08-06T08:36:22;19.90;99.90
52965;DHT22;42923;53.220;6.528;2022-08-06T08:38:48;19.80;99.90
52965;DHT22;42923;53.220;6.528;2022-08-06T08:41:21;19.60;99.90
52965;DHT22;42923;53.220;6.528;2022-08-06T08:43:53;19.40;99.90
52965;DHT22;42923;53.220;6.528;2022-08-06T08:46:21;18.90;99.90
52965;DHT22;42923;53.220;6.528;2022-08-06T08:48:47;18.20;99.90
52965;DHT22;42923;53.220;6.528;2022-08-06T08:51:15;17.70;99.90
52965;DHT22;42923;53.220;6.528;2022-08-06T08:53:48;17.40;99.90
52965;DHT22;42923;53.220;6.528;2022-08-06T08:56:14;17.10;99.90
52965;DHT22;42923;53.220;6.528;2022-08-06T08:58:41;16.90;99.90
52965;DHT22;42923;53.220;6.528;2022-08-06T09:01:08;16.80;99.90
52965;DHT22;42923;53.220;6.528;2022-08-06T09:03:38;16.80;99.90
52965;DHT22;42923;53.220;6.528;2022-08-06T09:06:05;16.80;99.90
52965;DHT22;42923;53.220;6.528;2022-08-06T09:08:31;16.80;99.90
52965;DHT22;42923;53.220;6.528;2022-08-06T09:10:58;16.80;99.90
52965;DHT22;42923;53.220;6.528;2022-08-06T09:13:25;16.90;99.90
52965;DHT22;42923;53.220;6.528;2022-08-06T09:15:52;16.90;99.90
52965;DHT22;42923;53.220;6.528;2022-08-06T09:18:19;17.00;99.90
52965;DHT22;42923;53.220;6.528;2022-08-06T09:20:45;16.90;99.90
52965;DHT22;42923;53.220;6.528;2022-08-06T09:23:11;17.10;99.90
52965;DHT22;42923;53.220;6.528;2022-08-06T09:31:07;17.60;99.90
52965;DHT22;42923;53.220;6.528;2022-08-06T09:33:36;17.80;99.90
52965;DHT22;42923;53.220;6.528;2022-08-06T09:36:10;18.10;99.90
52965;DHT22;42923;53.220;6.528;2022-08-06T09:41:17;18.60;99.90
52965;DHT22;42923;53.220;6.528;2022-08-06T09:43:47;18.80;99.90
52965;DHT22;42923;53.220;6.528;2022-08-06T09:46:14;19.00;99.90
52965;DHT22;42923;53.220;6.528;2022-08-06T09:48:59;19.10;99.90
52965;DHT22;42923;53.220;6.528;2022-08-06T09:51:26;19.20;99.90
52965;DHT22;42923;53.220;6.528;2022-08-06T09:53:57;19.30;99.90
52965;DHT22;42923;53.220;6.528;2022-08-06T09:56:25;19.40;99.90
52965;DHT22;42923;53.220;6.528;2022-08-06T09:59:00;19.50;99.90
52965;DHT22;42923;53.220;6.528;2022-08-06T10:01:26;19.60;99.90
52965;DHT22;42923;53.220;6.528;2022-08-06T10:03:55;19.70;99.90
52965;DHT22;42923;53.220;6.528;2022-08-06T10:06:21;19.70;99.90
52965;DHT22;42923;53.220;6.528;2022-08-06T10:08:48;19.80;99.90
52965;DHT22;42923;53.220;6.528;2022-08-06T10:11:15;19.90;99.90
52965;DHT22;42923;53.220;6.528;2022-08-06T10:13:47;20.10;99.90
52965;DHT22;42923;53.220;6.528;2022-08-06T10:16:21;20.30;99.90
52965;DHT22;42923;53.220;6.528;2022-08-06T10:18:56;20.30;99.90
52965;DHT22;42923;53.220;6.528;2022-08-06T10:21:24;20.40;99.90
52965;DHT22;42923;53.220;6.528;2022-08-06T10:23:53;20.60;99.90
52965;DHT22;42923;53.220;6.528;2022-08-06T10:26:24;20.80;99.90
52965;DHT22;42923;53.220;6.528;2022-08-06T10:28:52;20.90;99.90
52965;DHT22;42923;53.220;6.528;2022-08-06T10:31:19;21.00;99.90
52965;DHT22;42923;53.220;6.528;2022-08-06T10:33:50;21.30;99.90
52965;DHT22;42923;53.220;6.528;2022-08-06T10:36:19;21.70;99.90
52965;DHT22;42923;53.220;6.528;2022-08-06T10:38:49;22.10;99.90
52965;DHT22;42923;53.220;6.528;2022-08-06T10:41:16;22.40;97.20
52965;DHT22;42923;53.220;6.528;2022-08-06T10:43:42;22.30;96.10
52965;DHT22;42923;53.220;6.528;2022-08-06T10:46:11;22.20;98.00
52965;DHT22;42923;53.220;6.528;2022-08-06T10:48:43;22.50;99.10
52965;DHT22;42923;53.220;6.528;2022-08-06T10:51:10;22.80;93.10
52965;DHT22;42923;53.220;6.528;2022-08-06T10:53:39;23.00;94.30
52965;DHT22;42923;53.220;6.528;2022-08-06T10:56:07;23.10;94.30
52965;DHT22;42923;53.220;6.528;2022-08-06T10:58:34;23.00;90.50
52965;DHT22;42923;53.220;6.528;2022-08-06T11:01:03;22.90;87.20
52965;DHT22;42923;53.220;6.528;2022-08-06T11:10:06;23.30;80.20
52965;DHT22;42923;53.220;6.528;2022-08-06T11:15:37;24.50;76.00
52965;DHT22;42923;53.220;6.528;2022-08-06T11:18:09;24.60;71.70
52965;DHT22;42923;53.220;6.528;2022-08-06T11:20:38;24.50;70.00
52965;DHT22;42923;53.220;6.528;2022-08-06T11:25:42;24.70;72.00
52965;DHT22;42923;53.220;6.528;2022-08-06T11:28:13;25.10;69.10
52965;DHT22;42923;53.220;6.528;2022-08-06T11:30:52;25.10;67.80
52965;DHT22;42923;53.220;6.528;2022-08-06T11:38:58;24.70;65.70
52965;DHT22;42923;53.220;6.528;2022-08-06T11:41:29;24.70;67.70
52965;DHT22;42923;53.220;6.528;2022-08-06T11:51:55;26.30;61.90
52965;DHT22;42923;53.220;6.528;2022-08-06T12:02:13;26.20;63.10
52965;DHT22;42923;53.220;6.528;2022-08-06T12:04:41;26.60;64.10
52965;DHT22;42923;53.220;6.528;2022-08-06T12:07:27;26.60;61.10
52965;DHT22;42923;53.220;6.528;2022-08-06T12:12:38;25.80;61.60
52965;DHT22;42923;53.220;6.528;2022-08-06T12:18:00;25.80;63.50
52965;DHT22;42923;53.220;6.528;2022-08-06T12:23:06;26.30;61.10
52965;DHT22;42923;53.220;6.528;2022-08-06T12:25:40;26.10;60.40
52965;DHT22;42923;53.220;6.528;2022-08-06T12:28:08;25.90;60.20
52965;DHT22;42923;53.220;6.528;2022-08-06T12:33:07;25.60;59.40
52965;DHT22;42923;53.220;6.528;2022-08-06T12:35:47;25.60;60.30
52965;DHT22;42923;53.220;6.528;2022-08-06T12:38:12;25.90;58.90
52965;DHT22;42923;53.220;6.528;2022-08-06T12:40:38;26.20;60.50
52965;DHT22;42923;53.220;6.528;2022-08-06T12:45:32;26.80;58.90
52965;DHT22;42923;53.220;6.528;2022-08-06T12:47:59;26.90;57.60
52965;DHT22;42923;53.220;6.528;2022-08-06T12:50:25;26.50;56.90
52965;DHT22;42923;53.220;6.528;2022-08-06T12:55:27;26.10;59.60
52965;DHT22;42923;53.220;6.528;2022-08-06T12:57:55;26.50;60.00
52965;DHT22;42923;53.220;6.528;2022-08-06T13:00:21;26.70;57.50
52965;DHT22;42923;53.220;6.528;2022-08-06T13:02:48;26.60;57.70
52965;DHT22;42923;53.220;6.528;2022-08-06T13:05:15;26.60;58.10
52965;DHT22;42923;53.220;6.528;2022-08-06T13:07:42;26.60;57.40
52965;DHT22;42923;53.220;6.528;2022-08-06T13:10:12;26.50;57.10
52965;DHT22;42923;53.220;6.528;2022-08-06T13:12:38;26.50;58.60
52965;DHT22;42923;53.220;6.528;2022-08-06T13:15:12;26.70;58.90
52965;DHT22;42923;53.220;6.528;2022-08-06T13:17:38;27.10;58.10
52965;DHT22;42923;53.220;6.528;2022-08-06T13:20:04;27.30;57.30
52965;DHT22;42923;53.220;6.528;2022-08-06T13:22:30;27.30;56.70
52965;DHT22;42923;53.220;6.528;2022-08-06T13:25:13;27.30;56.80
52965;DHT22;42923;53.220;6.528;2022-08-06T13:27:41;27.40;55.80
52965;DHT22;42923;53.220;6.528;2022-08-06T13:30:09;27.30;55.60
52965;DHT22;42923;53.220;6.528;2022-08-06T13:32:35;27.30;55.90
52965;DHT22;42923;53.220;6.528;2022-08-06T13:35:06;27.50;56.30
52965;DHT22;42923;53.220;6.528;2022-08-06T13:37:48;27.60;55.20
52965;DHT22;42923;53.220;6.528;2022-08-06T13:40:15;27.50;53.80
52965;DHT22;42923;53.220;6.528;2022-08-06T13:42:52;27.40;54.30
52965;DHT22;42923;53.220;6.528;2022-08-06T13:45:26;27.30;53.40
52965;DHT22;42923;53.220;6.528;2022-08-06T13:48:09;27.20;54.00
52965;DHT22;42923;53.220;6.528;2022-08-06T13:50:42;27.40;54.40
52965;DHT22;42923;53.220;6.528;2022-08-06T13:53:12;27.60;54.20
52965;DHT22;42923;53.220;6.528;2022-08-06T13:55:41;27.70;53.90
52965;DHT22;42923;53.220;6.528;2022-08-06T13:58:07;27.90;53.10
52965;DHT22;42923;53.220;6.528;2022-08-06T14:00:35;27.80;52.80
52965;DHT22;42923;53.220;6.528;2022-08-06T14:03:03;27.70;53.30
52965;DHT22;42923;53.220;6.528;2022-08-06T14:05:29;27.50;53.60
52965;DHT22;42923;53.220;6.528;2022-08-06T14:07:55;27.40;54.00
52965;DHT22;42923;53.220;6.528;2022-08-06T14:10:21;27.30;54.50
52965;DHT22;42923;53.220;6.528;2022-08-06T14:12:47;27.20;54.10
52965;DHT22;42923;53.220;6.528;2022-08-06T14:15:33;27.10;54.00
52965;DHT22;42923;53.220;6.528;2022-08-06T14:17:59;27.10;54.30
52965;DHT22;42923;53.220;6.528;2022-08-06T14:20:25;27.20;54.00
52965;DHT22;42923;53.220;6.528;2022-08-06T14:22:52;27.30;53.70
52965;DHT22;42923;53.220;6.528;2022-08-06T14:25:18;27.20;53.50
52965;DHT22;42923;53.220;6.528;2022-08-06T14:27:43;27.30;54.60
52965;DHT22;42923;53.220;6.528;2022-08-06T14:30:09;27.70;54.30
52965;DHT22;42923;53.220;6.528;2022-08-06T14:32:35;28.00;53.70
52965;DHT22;42923;53.220;6.528;2022-08-06T14:35:01;28.20;54.30
52965;DHT22;42923;53.220;6.528;2022-08-06T14:37:26;28.40;55.50
52965;DHT22;42923;53.220;6.528;2022-08-06T14:39:52;28.60;54.20
52965;DHT22;42923;53.220;6.528;2022-08-06T14:42:18;28.00;54.00
52965;DHT22;42923;53.220;6.528;2022-08-06T14:45:02;27.10;56.80
52965;DHT22;42923;53.220;6.528;2022-08-06T14:47:32;26.20;57.00
52965;DHT22;42923;53.220;6.528;2022-08-06T14:49:58;25.70;58.30
52965;DHT22;42923;53.220;6.528;2022-08-06T14:52:24;25.70;58.70
52965;DHT22;42923;53.220;6.528;2022-08-06T14:54:50;25.70;58.80
52965;DHT22;42923;53.220;6.528;2022-08-06T14:57:16;26.10;58.60
52965;DHT22;42923;53.220;6.528;2022-08-06T14:59:43;26.50;57.90
52965;DHT22;42923;53.220;6.528;2022-08-06T15:02:09;26.90;57.20
52965;DHT22;42923;53.220;6.528;2022-08-06T15:04:35;27.10;56.70
52965;DHT22;42923;53.220;6.528;2022-08-06T15:07:01;27.00;56.70
52965;DHT22;42923;53.220;6.528;2022-08-06T15:09:27;27.10;56.90
52965;DHT22;42923;53.220;6.528;2022-08-06T15:11:53;27.20;56.00
52965;DHT22;42923;53.220;6.528;2022-08-06T15:14:19;26.80;56.40
52965;DHT22;42923;53.220;6.528;2022-08-06T15:16:44;26.10;56.90
52965;DHT22;42923;53.220;6.528;2022-08-06T15:19:10;25.70;58.30
52965;DHT22;42923;53.220;6.528;2022-08-06T15:21:36;25.70;58.30
52965;DHT22;42923;53.220;6.528;2022-08-06T15:24:02;25.80;58.20
52965;DHT22;42923;53.220;6.528;2022-08-06T15:26:28;25.80;58.00
52965;DHT22;42923;53.220;6.528;2022-08-06T15:28:53;26.00;58.50
52965;DHT22;42923;53.220;6.528;2022-08-06T15:31:20;26.00;57.90
52965;DHT22;42923;53.220;6.528;2022-08-06T15:33:48;25.40;58.30
52965;DHT22;42923;53.220;6.528;2022-08-06T15:36:14;24.60;59.20
52965;DHT22;42923;53.220;6.528;2022-08-06T15:38:39;23.90;60.30
52965;DHT22;42923;53.220;6.528;2022-08-06T15:41:06;23.30;61.60
52965;DHT22;42923;53.220;6.528;2022-08-06T15:43:31;22.70;62.40
52965;DHT22;42923;53.220;6.528;2022-08-06T15:45:58;22.30;63.70
52965;DHT22;42923;53.220;6.528;2022-08-06T15:48:27;22.00;64.50
52965;DHT22;42923;53.220;6.528;2022-08-06T15:50:54;21.70;64.70
52965;DHT22;42923;53.220;6.528;2022-08-06T15:53:20;21.40;65.40
52965;DHT22;42923;53.220;6.528;2022-08-06T15:55:46;21.30;66.00
52965;DHT22;42923;53.220;6.528;2022-08-06T15:58:12;21.30;66.40
52965;DHT22;42923;53.220;6.528;2022-08-06T16:00:39;21.20;66.30
52965;DHT22;42923;53.220;6.528;2022-08-06T16:03:07;21.20;66.80
52965;DHT22;42923;53.220;6.528;2022-08-06T16:05:35;21.10;67.20
52965;DHT22;42923;53.220;6.528;2022-08-06T16:08:01;20.90;67.30
52965;DHT22;42923;53.220;6.528;2022-08-06T16:10:27;20.90;67.90
52965;DHT22;42923;53.220;6.528;2022-08-06T16:12:54;20.70;68.10
52965;DHT22;42923;53.220;6.528;2022-08-06T16:15:20;20.70;68.30
52965;DHT22;42923;53.220;6.528;2022-08-06T16:17:46;20.70;68.70
52965;DHT22;42923;53.220;6.528;2022-08-06T16:20:16;20.60;68.70
52965;DHT22;42923;53.220;6.528;2022-08-06T16:22:42;20.60;69.10
52965;DHT22;42923;53.220;6.528;2022-08-06T16:25:08;20.50;69.50
52965;DHT22;42923;53.220;6.528;2022-08-06T16:27:33;20.50;69.80
52965;DHT22;42923;53.220;6.528;2022-08-06T16:29:59;20.40;69.90
52965;DHT22;42923;53.220;6.528;2022-08-06T16:32:25;20.40;69.90
52965;DHT22;42923;53.220;6.528;2022-08-06T16:34:51;20.30;70.10
52965;DHT22;42923;53.220;6.528;2022-08-06T16:37:23;20.30;70.20
52965;DHT22;42923;53.220;6.528;2022-08-06T16:39:49;20.30;71.00
52965;DHT22;42923;53.220;6.528;2022-08-06T16:42:15;20.40;70.80
52965;DHT22;42923;53.220;6.528;2022-08-06T16:44:41;20.40;71.00
52965;DHT22;42923;53.220;6.528;2022-08-06T16:47:06;20.30;71.10
52965;DHT22;42923;53.220;6.528;2022-08-06T16:49:33;20.30;71.40
52965;DHT22;42923;53.220;6.528;2022-08-06T16:51:59;20.20;71.60
52965;DHT22;42923;53.220;6.528;2022-08-06T16:54:24;20.10;71.90
52965;DHT22;42923;53.220;6.528;2022-08-06T16:56:50;20.00;72.00
52965;DHT22;42923;53.220;6.528;2022-08-06T16:59:16;19.90;72.40
52965;DHT22;42923;53.220;6.528;2022-08-06T17:01:42;19.80;72.30
52965;DHT22;42923;53.220;6.528;2022-08-06T17:04:08;19.70;72.50
52965;DHT22;42923;53.220;6.528;2022-08-06T17:06:34;19.70;72.80
52965;DHT22;42923;53.220;6.528;2022-08-06T17:09:02;19.60;73.10